createdAt,value
2023-03-23T16:00:42.480Z,55.59
2023-03-23T16:05:45.601Z,55.49
2023-03-23T16:10:48.209Z,55.17
2023-03-23T16:15:51.785Z,55.91
2023-03-23T16:20:54.482Z,56.01
2023-03-23T16:25:57.091Z,55.74
2023-03-23T16:30:59.893Z,56.07
2023-03-23T16:36:03.226Z,55.90
2023-03-23T16:41:06.297Z,55.70
2023-03-23T16:46:12.677Z,56.43
2023-03-23T16:51:15.557Z,56.55
2023-03-23T16:56:18.219Z,56.35
2023-03-23T17:01:20.999Z,57.04
2023-03-23T17:06:23.568Z,56.83
2023-03-23T17:11:26.409Z,57.33
2023-03-23T17:16:29.033Z,57.32
2023-03-23T17:21:32.381Z,57.21
2023-03-23T17:26:36.172Z,57.59
2023-03-23T17:31:39.117Z,57.81
2023-03-23T17:36:42.005Z,58.19
2023-03-23T17:41:44.615Z,58.40
2023-03-23T17:46:47.377Z,58.40
2023-03-23T17:51:50.677Z,58.85
2023-03-23T17:56:53.799Z,59.14
2023-03-23T18:01:57.007Z,59.49
2023-03-23T18:06:59.661Z,59.67
2023-03-23T18:12:02.379Z,59.85
2023-03-23T18:17:05.523Z,60.80
2023-03-23T18:22:08.116Z,61.65
2023-03-23T18:27:10.737Z,61.43
2023-03-23T18:32:13.423Z,61.60
2023-03-23T18:37:16.541Z,61.89
2023-03-23T18:42:19.345Z,62.50
2023-03-23T18:47:22.250Z,62.80
2023-03-23T18:52:30.964Z,62.46
2023-03-23T18:57:33.647Z,62.13
2023-03-23T19:02:39.496Z,62.35
2023-03-23T19:07:43.641Z,62.31
2023-03-23T19:12:47.376Z,62.40
2023-03-23T19:17:56.273Z,62.95
2023-03-23T19:22:59.247Z,63.58
2023-03-23T19:33:08.196Z,64.24
2023-03-23T19:38:11.646Z,65.17
2023-03-23T19:43:14.272Z,65.51
2023-03-23T19:48:18.033Z,65.26
2023-03-23T19:53:20.733Z,65.41
2023-03-23T19:58:23.418Z,65.12
2023-03-23T20:03:26.357Z,65.42
2023-03-23T20:08:29.635Z,64.83
2023-03-23T20:13:32.959Z,65.47
2023-03-23T20:18:37.292Z,65.48
2023-03-23T20:23:42.345Z,65.18
2023-03-23T20:28:47.527Z,65.29
2023-03-23T20:34:00.885Z,66.12
2023-03-23T20:39:06.385Z,66.52
2023-03-23T20:44:15.968Z,66.25
2023-03-23T20:49:20.935Z,67.02
2023-03-23T20:54:24.724Z,66.18
2023-03-23T20:59:28.215Z,66.55
2023-03-23T21:04:30.841Z,66.78
2023-03-23T21:09:34.117Z,67.20
2023-03-23T21:14:39.125Z,67.00
2023-03-23T21:19:41.770Z,67.89
2023-03-23T21:24:46.546Z,67.83
2023-03-23T21:29:49.111Z,68.44
2023-03-23T21:34:52.804Z,68.71
2023-03-23T21:39:56.005Z,69.72
2023-03-23T21:45:02.871Z,69.60
2023-03-23T21:50:07.287Z,70.57
2023-03-23T21:55:12.562Z,70.63
2023-03-23T22:00:15.902Z,70.97
2023-03-23T22:05:19.225Z,71.28
2023-03-23T22:10:21.882Z,72.07
2023-03-23T22:15:27.967Z,71.94
2023-03-23T22:20:31.170Z,72.68
2023-03-23T22:25:36.379Z,72.21
2023-03-23T22:30:39.285Z,73.08
2023-03-23T22:35:42.546Z,73.05
2023-03-23T22:40:54.654Z,73.87
2023-03-23T22:45:57.300Z,75.32
2023-03-23T22:51:00.591Z,74.74
2023-03-23T22:56:04.033Z,75.20
2023-03-23T23:01:10.096Z,75.32
2023-03-23T23:06:14.915Z,75.42
2023-03-23T23:11:19.976Z,76.46
2023-03-23T23:16:24.499Z,76.57
2023-03-23T23:21:27.267Z,76.59
2023-03-23T23:26:29.988Z,77.11
2023-03-23T23:31:33.847Z,76.88
2023-03-23T23:36:37.699Z,77.44
2023-03-23T23:41:40.342Z,77.84
2023-03-23T23:46:43.089Z,77.76
2023-03-23T23:51:45.967Z,78.62
2023-03-23T23:56:51.568Z,78.59
